createdAt,value
2018-07-19T00:00:48.157Z,78.02
2018-07-19T00:01:56.218Z,77.40
2018-07-19T00:03:04.275Z,77.50
2018-07-19T00:04:12.357Z,78.45
2018-07-19T00:05:20.419Z,78.17
2018-07-19T00:06:28.486Z,79.13
2018-07-19T00:07:36.561Z,77.97
2018-07-19T00:08:44.830Z,77.78
2018-07-19T00:09:52.894Z,77.50
2018-07-19T00:11:00.963Z,78.84
2018-07-19T00:12:09.007Z,78.93
2018-07-19T00:13:17.094Z,77.02
2018-07-19T00:14:25.157Z,77.31
2018-07-19T00:15:33.233Z,77.78
2018-07-19T00:16:41.297Z,77.02
2018-07-19T00:17:49.351Z,76.73
2018-07-19T00:18:58.538Z,77.78
2018-07-19T00:20:05.502Z,78.07
2018-07-19T00:21:13.557Z,76.35
2018-07-19T00:22:21.631Z,76.25
2018-07-19T00:23:29.685Z,76.25
2018-07-19T00:24:37.765Z,76.82
2018-07-19T00:25:45.871Z,76.54
2018-07-19T00:26:54.158Z,76.64
2018-07-19T00:28:01.961Z,76.82
2018-07-19T00:29:10.029Z,76.35
2018-07-19T00:30:18.088Z,76.64
2018-07-19T00:31:26.177Z,76.15
2018-07-19T00:32:34.233Z,76.64
2018-07-19T00:33:42.285Z,75.58
2018-07-19T00:34:50.374Z,75.87
2018-07-19T00:35:58.415Z,75.96
2018-07-19T00:37:06.508Z,75.68
2018-07-19T00:38:14.574Z,75.58
2018-07-19T00:39:22.641Z,75.58
2018-07-19T00:40:30.697Z,75.87
2018-07-19T00:41:38.741Z,75.48
2018-07-19T00:42:46.829Z,75.39
2018-07-19T00:43:54.900Z,75.68
2018-07-19T00:45:02.960Z,75.87
2018-07-19T00:46:11.377Z,75.68
2018-07-19T00:47:19.075Z,76.15
2018-07-19T00:48:27.165Z,75.68
2018-07-19T00:49:35.238Z,75.87
2018-07-19T00:50:43.311Z,76.15
2018-07-19T00:51:51.377Z,75.77
2018-07-19T00:52:59.420Z,75.77
2018-07-19T00:54:07.502Z,75.58
2018-07-19T00:55:15.570Z,75.39
2018-07-19T00:56:23.635Z,75.58
2018-07-19T00:57:31.694Z,75.87
2018-07-19T00:58:39.780Z,76.44
2018-07-19T00:59:47.825Z,76.82
2018-07-19T01:00:55.945Z,77.31
2018-07-19T01:02:03.980Z,76.25
2018-07-19T01:03:12.047Z,75.77
2018-07-19T01:04:20.110Z,76.92
2018-07-19T01:05:28.402Z,77.11
2018-07-19T01:06:36.240Z,77.40
2018-07-19T01:07:44.316Z,77.78
2018-07-19T01:08:52.375Z,78.45
2018-07-19T01:10:00.426Z,78.27
2018-07-19T01:11:08.509Z,77.97
2018-07-19T01:12:16.576Z,78.36
2018-07-19T01:13:24.649Z,77.88
2018-07-19T01:14:32.707Z,78.74
2018-07-19T01:15:40.773Z,78.07
2018-07-19T01:16:48.821Z,78.84
2018-07-19T01:17:56.919Z,78.74
2018-07-19T01:19:04.988Z,78.61
2018-07-19T01:20:13.059Z,79.47
2018-07-19T01:21:21.141Z,79.66
2018-07-19T01:22:29.217Z,80.04
2018-07-19T01:23:37.258Z,79.37
2018-07-19T01:24:45.328Z,79.57
2018-07-19T01:25:53.404Z,79.75
2018-07-19T01:27:01.473Z,79.37
2018-07-19T01:28:09.529Z,79.47
2018-07-19T01:29:17.596Z,78.70
2018-07-19T01:30:25.655Z,79.85
2018-07-19T01:31:33.720Z,79.66
2018-07-19T01:32:41.815Z,80.14
2018-07-19T01:33:49.868Z,79.18
2018-07-19T01:34:57.938Z,80.43
2018-07-19T01:36:06.011Z,80.14
2018-07-19T01:37:14.077Z,79.57
2018-07-19T01:38:22.148Z,79.18
2018-07-19T01:39:30.218Z,79.28
2018-07-19T01:40:38.278Z,79.66
2018-07-19T01:41:46.360Z,80.14
2018-07-19T01:42:54.412Z,79.08
2018-07-19T01:44:02.476Z,79.28
2018-07-19T01:45:10.556Z,79.95
2018-07-19T01:46:18.612Z,80.33
2018-07-19T01:47:26.686Z,80.04
2018-07-19T01:48:34.750Z,80.33
2018-07-19T01:49:42.807Z,78.76
2018-07-19T01:50:50.877Z,79.37
2018-07-19T01:51:58.950Z,79.18
2018-07-19T01:53:07.016Z,79.57
2018-07-19T01:54:15.087Z,79.52
2018-07-19T01:55:23.158Z,79.28
2018-07-19T01:56:31.221Z,78.86
2018-07-19T01:57:39.252Z,79.33
2018-07-19T01:58:47.361Z,79.24
2018-07-19T01:59:55.445Z,79.47
2018-07-19T02:01:03.485Z,79.05
2018-07-19T02:02:11.557Z,79.24
2018-07-19T02:03:19.622Z,79.33
2018-07-19T02:04:27.694Z,79.43
2018-07-19T02:05:35.756Z,79.47
2018-07-19T02:06:43.834Z,79.28
2018-07-19T02:07:51.888Z,78.66
2018-07-19T02:08:59.958Z,78.57
2018-07-19T02:10:08.027Z,78.47
2018-07-19T02:11:16.098Z,77.84
2018-07-19T02:12:24.160Z,77.90
2018-07-19T02:13:32.240Z,78.38
2018-07-19T02:14:40.318Z,78.28
2018-07-19T02:15:48.370Z,78.47
2018-07-19T02:16:56.784Z,78.47
2018-07-19T02:18:04.507Z,77.90
2018-07-19T02:19:12.569Z,78.76
2018-07-19T02:20:20.631Z,78.28
2018-07-19T02:21:28.680Z,78.99
2018-07-19T02:22:36.781Z,78.89
2018-07-19T02:23:44.836Z,78.89
2018-07-19T02:24:52.922Z,79.05
2018-07-19T02:26:00.972Z,78.95
2018-07-19T02:27:09.037Z,79.52
2018-07-19T02:28:17.113Z,79.33
2018-07-19T02:29:25.179Z,78.95
2018-07-19T02:30:33.237Z,79.28
2018-07-19T02:31:41.307Z,78.76
2018-07-19T02:32:49.351Z,79.33
2018-07-19T02:33:57.446Z,79.37
2018-07-19T02:35:05.500Z,79.43
2018-07-19T02:36:13.562Z,79.33
2018-07-19T02:37:21.656Z,79.14
2018-07-19T02:38:29.900Z,79.24
2018-07-19T02:39:37.965Z,79.24
2018-07-19T02:40:46.045Z,79.05
2018-07-19T02:41:54.099Z,79.24
2018-07-19T02:43:02.169Z,79.43
2018-07-19T02:44:10.234Z,79.33
2018-07-19T02:45:18.287Z,79.24
2018-07-19T02:46:26.357Z,79.14
2018-07-19T02:47:34.445Z,79.24
2018-07-19T02:48:42.480Z,79.81
2018-07-19T02:49:50.558Z,79.72
2018-07-19T02:50:58.628Z,79.52
2018-07-19T02:52:06.694Z,80.29
2018-07-19T02:53:14.759Z,79.72
2018-07-19T02:54:22.825Z,79.52
2018-07-19T02:55:30.895Z,80.29
2018-07-19T02:56:38.928Z,80.58
2018-07-19T02:57:48.101Z,80.77
2018-07-19T02:58:55.339Z,80.67
2018-07-19T03:00:03.146Z,80.77
2018-07-19T03:01:11.224Z,80.87
2018-07-19T03:02:19.260Z,80.87
2018-07-19T03:03:27.357Z,80.67
2018-07-19T03:04:35.429Z,80.96
2018-07-19T03:05:43.488Z,80.73
2018-07-19T03:06:51.549Z,81.54
2018-07-19T03:07:59.604Z,81.49
2018-07-19T03:09:07.691Z,81.21
2018-07-19T03:10:15.741Z,81.21
2018-07-19T03:11:23.811Z,81.30
2018-07-19T03:12:31.882Z,80.82
2018-07-19T03:13:39.962Z,81.40
2018-07-19T03:14:48.024Z,81.30
2018-07-19T03:15:56.085Z,81.40
2018-07-19T03:17:04.414Z,81.21
2018-07-19T03:18:12.220Z,80.92
2018-07-19T03:19:20.269Z,81.02
2018-07-19T03:20:28.352Z,80.92
2018-07-19T03:21:36.415Z,81.02
2018-07-19T03:22:44.483Z,80.63
2018-07-19T03:23:52.533Z,80.63
2018-07-19T03:25:00.636Z,80.63
2018-07-19T03:26:08.656Z,80.92
2018-07-19T03:27:16.745Z,80.63
2018-07-19T03:28:24.824Z,80.82
2018-07-19T03:29:32.909Z,80.73
2018-07-19T03:30:40.945Z,81.11
2018-07-19T03:31:48.997Z,81.40
2018-07-19T03:32:57.070Z,81.59
2018-07-19T03:34:05.139Z,81.78
2018-07-19T03:35:13.208Z,82.54
2018-07-19T03:36:21.278Z,81.97
2018-07-19T03:37:29.325Z,82.07
2018-07-19T03:38:37.387Z,81.78
2018-07-19T03:39:45.459Z,81.59
2018-07-19T03:40:53.526Z,81.97
2018-07-19T03:42:01.610Z,81.21
2018-07-19T03:43:09.677Z,81.30
2018-07-19T03:44:17.744Z,81.97
2018-07-19T03:45:25.799Z,81.59
2018-07-19T03:46:33.861Z,81.40
2018-07-19T03:47:41.941Z,81.30
2018-07-19T03:48:49.994Z,82.07
2018-07-19T03:49:58.430Z,81.21
2018-07-19T03:51:06.139Z,81.97
2018-07-19T03:52:14.205Z,81.30
2018-07-19T03:53:22.264Z,81.30
2018-07-19T03:54:30.333Z,81.11
2018-07-19T03:55:38.393Z,81.02
2018-07-19T03:56:46.455Z,81.49
2018-07-19T03:57:54.543Z,81.49
2018-07-19T03:59:02.604Z,81.40
2018-07-19T04:00:10.654Z,80.92
2018-07-19T04:01:20.129Z,80.92
2018-07-19T04:02:28.207Z,80.92
2018-07-19T04:03:36.263Z,80.73
2018-07-19T04:04:44.335Z,80.92
2018-07-19T04:05:52.408Z,80.73
2018-07-19T04:07:00.460Z,80.82
2018-07-19T04:08:08.527Z,80.73
2018-07-19T04:09:16.606Z,80.63
2018-07-19T04:10:24.675Z,80.63
2018-07-19T04:11:32.719Z,81.02
2018-07-19T04:12:40.807Z,81.02
2018-07-19T04:13:48.853Z,81.11
2018-07-19T04:14:56.924Z,81.02
2018-07-19T04:16:04.981Z,81.05
2018-07-19T04:17:13.094Z,81.21
2018-07-19T04:18:21.191Z,80.92
2018-07-19T04:19:29.196Z,80.63
2018-07-19T04:20:37.297Z,81.02
2018-07-19T04:21:45.583Z,81.49
2018-07-19T04:22:53.394Z,81.05
2018-07-19T04:24:01.453Z,81.30
2018-07-19T04:25:09.520Z,81.44
2018-07-19T04:26:17.588Z,81.63
2018-07-19T04:27:25.647Z,81.05
2018-07-19T04:28:33.722Z,81.63
2018-07-19T04:29:41.787Z,81.92
2018-07-19T04:30:50.221Z,81.73
2018-07-19T04:31:57.917Z,81.63
2018-07-19T04:33:05.992Z,81.63
2018-07-19T04:34:14.073Z,81.34
2018-07-19T04:35:22.338Z,81.25
2018-07-19T04:36:30.408Z,81.05
2018-07-19T04:37:39.242Z,81.34
2018-07-19T04:38:46.527Z,81.15
2018-07-19T04:39:54.593Z,81.34
2018-07-19T04:41:02.863Z,81.54
2018-07-19T04:42:11.364Z,81.34
2018-07-19T04:43:18.813Z,81.25
2018-07-19T04:44:26.866Z,81.15
2018-07-19T04:45:34.933Z,81.34
2018-07-19T04:46:43.000Z,81.15
2018-07-19T04:47:51.055Z,80.87
2018-07-19T04:48:59.105Z,80.87
2018-07-19T04:50:07.884Z,80.10
2018-07-19T04:51:15.262Z,81.05
2018-07-19T04:52:23.337Z,81.05
2018-07-19T04:53:31.384Z,80.96
2018-07-19T04:54:39.464Z,81.10
2018-07-19T04:55:47.528Z,81.57
2018-07-19T04:56:55.596Z,81.48
2018-07-19T04:58:03.663Z,81.38
2018-07-19T04:59:16.216Z,81.29
2018-07-19T05:00:22.203Z,81.86
2018-07-19T05:01:30.273Z,81.86
2018-07-19T05:02:38.342Z,81.48
2018-07-19T05:03:46.408Z,81.48
2018-07-19T05:04:54.472Z,81.20
2018-07-19T05:06:02.537Z,81.10
2018-07-19T05:07:10.604Z,81.00
2018-07-19T05:08:19.344Z,79.85
2018-07-19T05:09:26.752Z,78.07
2018-07-19T05:10:34.819Z,76.04
2018-07-19T05:11:43.183Z,74.54
2018-07-19T05:12:54.041Z,73.62
2018-07-19T05:15:13.954Z,74.39
2018-07-19T05:16:22.008Z,74.83
2018-07-19T05:17:30.055Z,75.12
2018-07-19T05:18:38.143Z,75.12
2018-07-19T05:19:47.228Z,74.73
2018-07-19T05:20:54.270Z,75.40
2018-07-19T05:22:02.331Z,75.79
2018-07-19T05:23:10.435Z,76.14
2018-07-19T05:24:20.485Z,76.23
2018-07-19T05:25:26.555Z,76.04
2018-07-19T05:26:34.679Z,76.23
2018-07-19T05:27:42.678Z,76.81
2018-07-19T05:28:50.754Z,77.19
2018-07-19T05:29:58.790Z,76.32
2018-07-19T05:31:06.892Z,77.19
2018-07-19T05:32:14.960Z,77.67
2018-07-19T05:33:23.020Z,77.95
2018-07-19T05:34:31.149Z,77.38
2018-07-19T05:35:39.136Z,77.38
2018-07-19T05:36:47.218Z,77.67
2018-07-19T05:38:01.338Z,78.05
2018-07-19T05:39:03.357Z,78.15
2018-07-19T05:40:11.434Z,78.05
2018-07-19T05:41:19.467Z,78.05
2018-07-19T05:42:27.565Z,77.95
2018-07-19T05:43:35.612Z,78.25
2018-07-19T05:44:43.678Z,77.67
2018-07-19T05:45:51.754Z,77.95
2018-07-19T05:46:59.818Z,77.58
2018-07-19T05:48:07.886Z,77.19
2018-07-19T05:49:15.962Z,77.38
2018-07-19T05:50:24.013Z,76.42
2018-07-19T05:51:32.099Z,76.52
2018-07-19T05:52:40.155Z,76.75
2018-07-19T05:53:48.232Z,76.65
2018-07-19T05:54:56.290Z,76.65
2018-07-19T05:56:04.370Z,76.56
2018-07-19T05:57:13.039Z,75.98
2018-07-19T05:58:21.135Z,75.98
2018-07-19T05:59:29.159Z,75.98
2018-07-19T06:00:37.236Z,75.50
2018-07-19T06:01:45.309Z,75.21
2018-07-19T06:02:53.380Z,75.12
2018-07-19T06:04:01.453Z,75.15
2018-07-19T06:05:09.525Z,74.77
2018-07-19T06:06:17.596Z,74.39
2018-07-19T06:07:25.661Z,74.68
2018-07-19T06:08:33.718Z,74.29
2018-07-19T06:09:41.842Z,74.96
2018-07-19T06:10:49.874Z,74.68
2018-07-19T06:11:57.927Z,74.48
2018-07-19T06:13:06.094Z,74.87
2018-07-19T06:14:14.082Z,74.43
2018-07-19T06:15:22.136Z,74.81
2018-07-19T06:16:30.194Z,74.81
2018-07-19T06:17:38.269Z,74.23
2018-07-19T06:18:46.350Z,74.62
2018-07-19T06:19:54.421Z,73.75
2018-07-19T06:21:02.489Z,73.46
2018-07-19T06:22:10.812Z,73.18
2018-07-19T06:23:18.691Z,73.56
2018-07-19T06:24:26.679Z,73.50
2018-07-19T06:25:34.756Z,73.98
2018-07-19T06:26:42.835Z,73.69
2018-07-19T06:27:50.893Z,71.29
2018-07-19T06:28:58.928Z,69.18
2018-07-19T06:30:07.025Z,70.33
2018-07-19T06:31:15.085Z,70.46
2018-07-19T06:32:23.164Z,70.37
2018-07-19T06:33:31.248Z,69.69
2018-07-19T06:34:39.282Z,67.96
2018-07-19T06:35:47.370Z,67.86
2018-07-19T06:36:55.460Z,67.48
2018-07-19T06:38:03.503Z,67.32
2018-07-19T06:39:15.005Z,66.07
2018-07-19T06:40:23.169Z,67.13
2018-07-19T06:41:31.145Z,66.30
2018-07-19T06:42:39.189Z,64.95
2018-07-19T06:43:47.280Z,65.24
2018-07-19T06:44:55.367Z,66.97
2018-07-19T06:46:03.440Z,66.88
2018-07-19T06:47:11.493Z,67.45
2018-07-19T06:48:19.551Z,66.58
2018-07-19T06:49:27.682Z,66.01
2018-07-19T06:50:35.701Z,65.63
2018-07-19T06:51:43.778Z,64.86
2018-07-19T06:52:51.851Z,64.95
2018-07-19T06:53:59.918Z,65.24
2018-07-19T06:55:07.982Z,66.52
2018-07-19T06:56:16.100Z,66.52
2018-07-19T06:57:24.190Z,66.81
2018-07-19T06:58:32.191Z,66.91
2018-07-19T06:59:40.304Z,65.56
2018-07-19T07:00:48.324Z,63.54
2018-07-19T07:01:56.406Z,62.29
2018-07-19T07:03:04.467Z,62.70
2018-07-19T07:04:12.563Z,64.25
2018-07-19T07:05:20.871Z,62.60
2018-07-19T07:06:28.671Z,63.98
2018-07-19T07:07:37.112Z,64.18
2018-07-19T07:08:44.867Z,62.06
2018-07-19T07:09:52.889Z,61.96
2018-07-19T07:11:00.971Z,60.03
2018-07-19T07:12:09.018Z,60.52
2018-07-19T07:13:17.106Z,63.21
2018-07-19T07:14:25.181Z,60.16
2018-07-19T07:15:33.295Z,56.69
2018-07-19T07:16:41.313Z,56.49
2018-07-19T07:17:49.364Z,56.52
2018-07-19T07:18:57.454Z,57.78
2018-07-19T07:20:05.534Z,54.79
2018-07-19T07:21:13.639Z,54.82
2018-07-19T07:22:21.678Z,55.04
2018-07-19T07:23:29.744Z,54.46
2018-07-19T07:24:37.812Z,54.07
2018-07-19T07:25:45.894Z,54.00
2018-07-19T07:26:53.970Z,52.77
2018-07-19T07:28:02.028Z,52.67
2018-07-19T07:29:10.115Z,52.82
2018-07-19T07:30:20.788Z,49.95
2018-07-19T07:31:31.910Z,47.74
2018-07-19T07:32:37.201Z,45.73
2018-07-19T07:33:45.033Z,44.68
2018-07-19T07:34:53.112Z,46.36
2018-07-19T07:36:01.171Z,46.31
2018-07-19T07:37:09.214Z,46.14
2018-07-19T07:38:17.317Z,42.85
2018-07-19T07:39:25.389Z,42.58
2018-07-19T07:40:33.716Z,40.88
2018-07-19T07:41:41.993Z,38.17
2018-07-19T07:42:49.830Z,39.16
2018-07-19T07:43:57.896Z,37.89
2018-07-19T07:45:08.812Z,37.31
2018-07-19T07:46:16.865Z,38.17
2018-07-19T07:47:26.349Z,38.18
2018-07-19T07:48:34.430Z,39.65
2018-07-19T07:49:42.714Z,40.03
2018-07-19T07:50:50.778Z,39.18
2018-07-19T07:51:58.886Z,37.62
2018-07-19T07:53:06.954Z,36.47
2018-07-19T07:54:15.061Z,35.00
2018-07-19T07:55:23.110Z,36.27
2018-07-19T07:56:33.588Z,37.17
2018-07-19T07:57:44.289Z,37.48
2018-07-19T08:00:08.324Z,35.94
2018-07-19T08:01:16.408Z,36.23
2018-07-19T08:02:24.491Z,36.54
2018-07-19T08:03:32.573Z,37.14
2018-07-19T08:04:40.647Z,32.94
2018-07-19T08:05:48.693Z,36.55
2018-07-19T08:06:56.815Z,33.70
2018-07-19T08:08:04.975Z,35.48
2018-07-19T08:09:12.975Z,33.53
2018-07-19T08:10:21.059Z,32.65
2018-07-19T08:11:29.111Z,31.88
2018-07-19T08:12:37.218Z,33.62
2018-07-19T08:13:45.296Z,34.58
2018-07-19T08:14:53.377Z,36.34
2018-07-19T08:16:01.720Z,35.19
2018-07-19T08:17:09.814Z,36.16
2018-07-19T08:18:17.616Z,33.45
2018-07-19T08:19:25.705Z,32.46
2018-07-19T08:20:33.795Z,33.41
2018-07-19T08:21:41.918Z,35.66
2018-07-19T08:22:49.957Z,36.73
2018-07-19T08:23:58.044Z,34.99
2018-07-19T08:25:06.120Z,35.09
2018-07-19T08:26:14.220Z,34.89
2018-07-19T08:27:22.292Z,36.77
2018-07-19T08:28:30.368Z,33.36
2018-07-19T08:29:38.449Z,33.65
2018-07-19T08:30:46.532Z,36.51
2018-07-19T08:31:54.618Z,35.14
2018-07-19T08:33:02.793Z,35.24
2018-07-19T08:34:10.796Z,31.91
2018-07-19T08:35:18.858Z,30.65
2018-07-19T08:36:26.955Z,34.86
2018-07-19T08:37:35.036Z,34.77
2018-07-19T08:38:43.128Z,30.16
2018-07-19T08:39:51.211Z,31.14
2018-07-19T08:40:59.537Z,33.39
2018-07-19T08:42:07.378Z,31.04
2018-07-19T08:43:15.459Z,29.77
2018-07-19T08:44:23.542Z,32.66
2018-07-19T08:45:31.632Z,35.58
2018-07-19T08:46:39.704Z,33.43
2018-07-19T08:47:47.801Z,33.61
2018-07-19T08:48:55.875Z,32.92
2018-07-19T08:50:03.959Z,31.95
2018-07-19T08:51:12.049Z,32.82
2018-07-19T08:52:20.135Z,31.96
2018-07-19T08:53:28.216Z,34.29
2018-07-19T08:54:36.313Z,34.09
2018-07-19T08:55:44.376Z,32.43
2018-07-19T08:56:52.469Z,33.59
2018-07-19T08:58:00.544Z,37.22
2018-07-19T08:59:08.623Z,34.29
2018-07-19T09:00:16.728Z,32.82
2018-07-19T09:01:25.143Z,34.29
2018-07-19T09:02:32.886Z,36.54
2018-07-19T09:03:40.986Z,32.45
2018-07-19T09:04:49.025Z,31.87
2018-07-19T09:05:57.149Z,33.90
2018-07-19T09:07:05.217Z,33.61
2018-07-19T09:08:13.304Z,32.63
2018-07-19T09:09:21.400Z,34.96
2018-07-19T09:10:29.459Z,33.30
2018-07-19T09:11:37.561Z,34.75
2018-07-19T09:12:45.639Z,40.01
2018-07-19T09:13:53.739Z,36.52
2018-07-19T09:15:01.820Z,33.40
2018-07-19T09:16:09.895Z,33.30
2018-07-19T09:17:17.985Z,35.16
2018-07-19T09:18:26.057Z,36.44
2018-07-19T09:19:34.269Z,38.69
2018-07-19T09:20:42.236Z,34.09
2018-07-19T09:21:50.580Z,33.33
2018-07-19T09:22:58.394Z,35.77
2018-07-19T09:24:06.479Z,32.55
2018-07-19T09:25:14.561Z,36.34
2018-07-19T09:26:22.729Z,35.45
2018-07-19T09:27:30.722Z,38.06
2018-07-19T09:28:38.804Z,40.50
2018-07-19T09:29:46.893Z,39.22
2018-07-19T09:30:54.974Z,36.78
2018-07-19T09:32:03.058Z,38.82
2018-07-19T09:33:11.611Z,37.73
2018-07-19T09:34:19.412Z,36.47
2018-07-19T09:35:27.514Z,39.18
2018-07-19T09:36:35.593Z,40.13
2018-07-19T09:37:43.762Z,39.53
2018-07-19T09:38:51.749Z,39.90
2018-07-19T09:39:59.852Z,39.22
2018-07-19T09:41:07.918Z,42.63
2018-07-19T09:42:16.004Z,41.53
2018-07-19T09:43:24.074Z,42.11
2018-07-19T09:44:32.155Z,40.56
2018-07-19T09:45:40.227Z,41.24
2018-07-19T09:46:48.305Z,42.11
2018-07-19T09:47:56.590Z,44.43
2018-07-19T09:49:04.663Z,41.42
2018-07-19T09:50:12.734Z,38.89
2018-07-19T09:51:20.825Z,38.77
2018-07-19T09:52:28.882Z,41.59
2018-07-19T09:53:36.977Z,42.18
2018-07-19T09:54:45.122Z,43.82
2018-07-19T09:55:53.206Z,41.30
2018-07-19T09:57:01.230Z,40.62
2018-07-19T09:58:09.259Z,40.33
2018-07-19T09:59:17.353Z,41.28
2018-07-19T10:00:25.429Z,42.83
2018-07-19T10:01:33.503Z,44.78
2018-07-19T10:02:41.593Z,43.71
2018-07-19T10:03:49.679Z,44.31
2018-07-19T10:04:57.755Z,43.05
2018-07-19T10:06:05.816Z,44.89
2018-07-19T10:07:13.888Z,43.05
2018-07-19T10:08:21.975Z,44.89
2018-07-19T10:09:30.047Z,42.87
2018-07-19T10:10:38.126Z,41.71
2018-07-19T10:11:46.203Z,42.00
2018-07-19T10:12:54.269Z,43.07
2018-07-19T10:14:02.357Z,41.13
2018-07-19T10:15:10.415Z,42.00
2018-07-19T10:16:18.486Z,42.56
2018-07-19T10:17:26.586Z,43.07
2018-07-19T10:18:34.647Z,40.44
2018-07-19T10:19:42.730Z,40.23
2018-07-19T10:20:50.809Z,43.73
2018-07-19T10:21:58.846Z,40.52
2018-07-19T10:23:06.950Z,46.45
2018-07-19T10:24:15.034Z,43.82
2018-07-19T10:25:23.107Z,44.92
2018-07-19T10:26:31.226Z,45.50
2018-07-19T10:27:39.233Z,42.78
2018-07-19T10:28:47.336Z,41.24
2018-07-19T10:29:55.398Z,43.09
2018-07-19T10:31:03.468Z,45.91
2018-07-19T10:32:11.781Z,43.58
2018-07-19T10:33:19.625Z,39.10
2018-07-19T10:34:27.760Z,40.66
2018-07-19T10:35:35.771Z,41.63
2018-07-19T10:36:43.860Z,39.98
2018-07-19T10:37:51.932Z,43.77
2018-07-19T10:38:59.996Z,43.77
2018-07-19T10:40:08.072Z,43.48
2018-07-19T10:41:16.158Z,43.19
2018-07-19T10:42:24.224Z,43.70
2018-07-19T10:43:32.304Z,43.01
2018-07-19T10:44:40.382Z,45.06
2018-07-19T10:45:48.488Z,41.94
2018-07-19T10:46:56.538Z,39.22
2018-07-19T10:48:05.711Z,45.45
2018-07-19T10:49:12.687Z,43.40
2018-07-19T10:50:20.763Z,40.78
2018-07-19T10:51:28.804Z,41.85
2018-07-19T10:52:36.898Z,42.72
2018-07-19T10:53:44.976Z,44.09
2018-07-19T10:54:53.065Z,42.24
2018-07-19T10:56:01.136Z,44.09
2018-07-19T10:57:09.191Z,40.29
2018-07-19T10:58:17.277Z,41.06
2018-07-19T10:59:25.361Z,42.72
2018-07-19T11:00:33.427Z,43.43
2018-07-19T16:59:07.958Z,46.84
2018-07-19T17:00:15.940Z,44.71
2018-07-19T17:01:23.406Z,44.51
2018-07-19T17:02:31.961Z,44.71
2018-07-19T17:03:40.518Z,45.00
2018-07-19T17:04:47.922Z,46.07
2018-07-19T17:05:56.213Z,47.35
2018-07-19T17:07:04.290Z,47.52
2018-07-19T17:08:12.635Z,47.35
2018-07-19T17:09:20.233Z,47.74
2018-07-19T17:10:28.285Z,47.45
2018-07-19T17:11:36.595Z,48.32
2018-07-19T17:12:44.622Z,46.58
2018-07-19T17:13:52.769Z,47.35
2018-07-19T17:15:01.465Z,48.39
2018-07-19T17:16:08.945Z,48.78
2018-07-19T17:17:16.905Z,48.59
2018-07-19T17:18:24.949Z,50.43
2018-07-19T17:19:32.967Z,50.04
2018-07-19T17:20:41.047Z,49.82
2018-07-19T17:21:49.119Z,51.59
2018-07-19T17:22:57.191Z,48.08
2018-07-19T17:24:05.220Z,47.60
2018-07-19T17:25:13.331Z,48.08
2018-07-19T17:26:21.446Z,49.82
2018-07-19T17:27:30.493Z,48.95
2018-07-19T17:28:37.552Z,48.47
2018-07-19T17:29:45.601Z,47.98
2018-07-19T17:30:53.700Z,47.40
2018-07-19T17:32:01.987Z,47.40
2018-07-19T17:33:10.035Z,47.77
2018-07-19T17:34:18.108Z,47.57
2018-07-19T17:35:26.179Z,46.41
2018-07-19T17:36:34.304Z,49.90
2018-07-19T17:37:42.359Z,52.32
2018-07-19T17:38:50.403Z,49.61
2018-07-19T17:39:58.480Z,51.06
2018-07-19T17:41:06.576Z,52.80
2018-07-19T17:42:14.609Z,53.09
2018-07-19T17:43:22.703Z,53.97
2018-07-19T17:44:30.781Z,55.62
2018-07-19T17:45:38.842Z,56.59
2018-07-19T17:46:50.173Z,58.20
2018-07-19T17:47:54.987Z,58.78
2018-07-19T17:49:03.055Z,56.16
2018-07-19T17:50:11.128Z,58.30
2018-07-19T17:51:19.209Z,59.27
2018-07-19T17:52:27.299Z,58.88
2018-07-19T17:53:35.525Z,59.39
2018-07-19T17:54:43.685Z,58.78
2018-07-19T17:55:51.688Z,60.27
2018-07-19T17:57:00.027Z,58.52
2018-07-19T17:58:08.059Z,59.00
2018-07-19T17:59:16.129Z,58.42
2018-07-19T18:00:24.210Z,61.14
2018-07-19T18:01:32.322Z,61.11
2018-07-19T18:02:40.340Z,62.20
2018-07-19T18:03:48.435Z,62.07
2018-07-19T18:04:56.756Z,61.40
2018-07-19T18:06:04.573Z,62.66
2018-07-19T18:07:12.926Z,62.88
2018-07-19T18:08:20.904Z,63.14
2018-07-19T18:09:28.986Z,63.53
2018-07-19T18:10:37.059Z,63.34
2018-07-19T18:11:45.119Z,63.24
2018-07-19T18:12:53.240Z,62.95
2018-07-19T18:14:01.279Z,63.53
2018-07-19T18:15:09.344Z,61.21
2018-07-19T18:16:17.431Z,61.85
2018-07-19T18:17:25.470Z,61.40
2018-07-19T18:18:33.578Z,62.63
2018-07-19T18:19:41.650Z,58.37
2018-07-19T18:20:49.806Z,59.91
2018-07-19T18:21:57.774Z,59.82
2018-07-19T18:23:05.835Z,61.36
2018-07-19T18:24:13.936Z,62.34
2018-07-19T18:25:21.994Z,62.72
2018-07-19T18:26:30.075Z,64.62
2018-07-19T18:27:38.145Z,65.79
2018-07-19T18:28:46.240Z,66.27
2018-07-19T18:29:54.532Z,66.85
2018-07-19T18:31:02.559Z,67.91
2018-07-19T18:32:10.642Z,68.79
2018-07-19T18:33:18.705Z,68.17
2018-07-19T18:34:26.783Z,69.62
2018-07-19T18:35:34.946Z,70.59
2018-07-19T18:36:42.918Z,71.14
2018-07-19T18:37:51.193Z,71.33
2018-07-19T18:38:59.276Z,70.75
2018-07-19T18:40:07.354Z,71.72
2018-07-19T18:41:15.405Z,70.81
2018-07-19T18:42:23.490Z,71.20
2018-07-19T18:43:31.916Z,72.26
2018-07-19T18:44:40.049Z,74.10
2018-07-19T18:45:48.104Z,73.77
2018-07-19T18:46:56.173Z,74.64
2018-07-19T18:48:04.245Z,71.16
2018-07-19T18:49:12.353Z,72.71
2018-07-19T18:50:20.799Z,73.19
2018-07-19T18:51:28.502Z,73.48
2018-07-19T18:52:37.748Z,74.21
2018-07-19T18:53:45.807Z,72.48
2018-07-19T18:54:53.888Z,73.15
2018-07-19T18:56:01.970Z,73.35
2018-07-19T18:57:10.557Z,73.63
2018-07-19T18:58:18.312Z,73.35
2018-07-19T18:59:26.385Z,73.44
2018-07-19T19:00:34.724Z,71.80
2018-07-19T19:01:42.526Z,73.11
2018-07-19T19:02:50.597Z,70.45
2018-07-19T19:03:58.663Z,73.06
2018-07-19T19:05:07.106Z,72.44
2018-07-19T19:06:19.113Z,73.15
2018-07-19T19:07:22.891Z,74.08
2018-07-19T19:08:30.957Z,74.08
2018-07-19T19:09:40.537Z,74.27
2018-07-19T19:10:47.110Z,73.99
2018-07-19T19:11:56.148Z,74.27
2018-07-19T19:13:06.457Z,74.27
2018-07-19T19:14:14.533Z,74.18
2018-07-19T19:15:22.655Z,74.76
2018-07-19T19:16:30.656Z,74.85
2018-07-19T19:17:38.739Z,75.72
2018-07-19T19:18:46.799Z,76.10
2018-07-19T19:19:54.866Z,76.68
2018-07-19T19:21:02.957Z,76.40
2018-07-19T19:22:11.009Z,76.40
2018-07-19T19:23:19.088Z,76.88
2018-07-19T19:24:27.155Z,74.85
2018-07-19T19:25:35.247Z,76.88
2018-07-19T19:26:43.380Z,76.84
2018-07-19T19:27:51.372Z,75.92
2018-07-19T19:28:59.432Z,76.84
2018-07-19T19:30:07.506Z,75.40
2018-07-19T19:31:15.555Z,76.55
2018-07-19T19:32:23.654Z,75.68
2018-07-19T19:33:32.085Z,76.75
2018-07-19T19:34:39.799Z,76.75
2018-07-19T19:35:47.854Z,78.00
2018-07-19T19:36:56.217Z,78.29
2018-07-19T19:38:04.008Z,77.71
2018-07-19T19:39:12.055Z,78.29
2018-07-19T19:40:20.167Z,78.67
2018-07-19T19:41:28.254Z,78.29
2018-07-19T19:42:36.298Z,78.38
2018-07-19T19:43:44.351Z,78.77
2018-07-19T19:44:52.469Z,77.67
2018-07-19T19:46:00.692Z,77.51
2018-07-19T19:47:08.964Z,78.15
2018-07-19T19:48:16.646Z,79.06
2018-07-19T19:49:24.702Z,78.44
2018-07-19T19:50:32.775Z,77.28
2018-07-19T19:51:41.399Z,78.73
2018-07-19T19:52:48.969Z,78.73
2018-07-19T19:53:56.987Z,78.25
2018-07-19T19:55:05.088Z,79.31
2018-07-19T19:56:13.658Z,80.08
2018-07-19T19:57:21.191Z,79.69
2018-07-19T19:58:29.266Z,79.69
2018-07-19T19:59:38.283Z,79.41
2018-07-19T20:00:45.367Z,79.50
2018-07-19T20:01:53.814Z,79.50
2018-07-19T20:03:03.076Z,79.41
2018-07-19T20:04:10.592Z,79.31
2018-07-19T20:05:18.252Z,78.44
2018-07-19T20:06:26.667Z,78.54
2018-07-19T20:07:34.238Z,78.44
2018-07-19T20:08:42.330Z,78.44
2018-07-19T20:09:50.828Z,79.11
2018-07-19T20:10:58.415Z,78.44
2018-07-19T20:12:06.595Z,79.21
2018-07-19T20:13:14.517Z,79.41
2018-07-19T20:14:22.921Z,79.56
2018-07-19T20:15:31.280Z,79.17
2018-07-19T20:16:38.887Z,78.69
2018-07-19T20:17:47.501Z,77.44
2018-07-19T20:18:54.928Z,78.50
2018-07-19T20:20:03.218Z,78.88
2018-07-19T20:21:11.660Z,77.73
2018-07-19T20:22:19.360Z,76.86
2018-07-19T20:23:27.281Z,75.71
2018-07-19T20:24:35.427Z,76.38
2018-07-19T20:25:43.351Z,75.71
2018-07-19T20:26:51.894Z,74.26
2018-07-19T20:27:59.840Z,76.38
2018-07-19T20:29:07.893Z,76.86
2018-07-19T20:30:15.869Z,76.09
2018-07-19T20:31:24.149Z,75.90
2018-07-19T20:32:31.999Z,75.32
2018-07-19T20:33:40.047Z,75.13
2018-07-19T20:34:48.455Z,74.36
2018-07-19T20:35:56.680Z,74.07
2018-07-19T20:37:04.868Z,75.23